sensor_id;sensor_type;location;lat;lon;timestamp;pressure;altitude;pressure_sealevel;temperature;humidity
40918;BME280;26644;50.248;19.032;2023-02-03T00:02:18;98692.41;;;1.31;66.80
40918;BME280;26644;50.248;19.032;2023-02-03T00:05:24;98704.25;;;1.36;66.82
40918;BME280;26644;50.248;19.032;2023-02-03T00:08:31;98694.25;;;1.37;66.92
40918;BME280;26644;50.248;19.032;2023-02-03T00:11:39;98693.44;;;1.36;66.69
40918;BME280;26644;50.248;19.032;2023-02-03T00:14:44;98703.44;;;1.29;66.54
40918;BME280;26644;50.248;19.032;2023-02-03T00:17:50;98705.13;;;1.23;66.73
40918;BME280;26644;50.248;19.032;2023-02-03T00:20:55;98700.75;;;1.22;66.92
40918;BME280;26644;50.248;19.032;2023-02-03T00:24:01;98707.81;;;1.23;67.02
40918;BME280;26644;50.248;19.032;2023-02-03T00:27:08;98680.19;;;1.08;67.14
40918;BME280;26644;50.248;19.032;2023-02-03T00:30:15;98721.78;;;1.20;67.14
40918;BME280;26644;50.248;19.032;2023-02-03T00:33:20;98686.44;;;1.02;66.72
40918;BME280;26644;50.248;19.032;2023-02-03T00:36:26;98719.31;;;1.12;66.76
40918;BME280;26644;50.248;19.032;2023-02-03T00:39:31;98727.19;;;1.14;67.03
40918;BME280;26644;50.248;19.032;2023-02-03T00:42:42;98730.72;;;1.21;67.41
40918;BME280;26644;50.248;19.032;2023-02-03T00:45:47;98735.31;;;1.20;66.92
40918;BME280;26644;50.248;19.032;2023-02-03T00:48:54;98735.69;;;1.17;66.79
40918;BME280;26644;50.248;19.032;2023-02-03T00:51:59;98738.41;;;1.17;66.85
40918;BME280;26644;50.248;19.032;2023-02-03T00:55:06;98733.88;;;1.11;66.62
40918;BME280;26644;50.248;19.032;2023-02-03T00:58:15;98692.72;;;0.82;66.78
40918;BME280;26644;50.248;19.032;2023-02-03T01:01:20;98715.97;;;1.10;67.05
40918;BME280;26644;50.248;19.032;2023-02-03T01:04:26;98721.38;;;1.10;66.53
40918;BME280;26644;50.248;19.032;2023-02-03T01:07:32;98727.81;;;1.09;66.17
40918;BME280;26644;50.248;19.032;2023-02-03T01:10:38;98721.81;;;1.07;66.53
40918;BME280;26644;50.248;19.032;2023-02-03T01:13:47;98708.50;;;1.05;66.30
40918;BME280;26644;50.248;19.032;2023-02-03T01:16:52;98718.47;;;1.05;66.05
40918;BME280;26644;50.248;19.032;2023-02-03T01:19:58;98708.09;;;1.02;65.88
40918;BME280;26644;50.248;19.032;2023-02-03T01:23:02;98718.25;;;1.00;65.61
40918;BME280;26644;50.248;19.032;2023-02-03T01:26:10;98683.56;;;0.76;65.58
40918;BME280;26644;50.248;19.032;2023-02-03T01:29:20;98718.06;;;0.94;65.89
40918;BME280;26644;50.248;19.032;2023-02-03T01:32:25;98708.31;;;0.93;65.38
40918;BME280;26644;50.248;19.032;2023-02-03T01:35:33;98686.88;;;0.79;65.67
40918;BME280;26644;50.248;19.032;2023-02-03T01:38:39;98705.59;;;0.93;65.53
40918;BME280;26644;50.248;19.032;2023-02-03T01:41:45;98691.03;;;0.81;65.25
40918;BME280;26644;50.248;19.032;2023-02-03T01:44:54;98688.78;;;0.71;65.21
40918;BME280;26644;50.248;19.032;2023-02-03T01:48:03;98709.56;;;0.77;65.58
40918;BME280;26644;50.248;19.032;2023-02-03T01:51:09;98696.25;;;0.76;65.76
40918;BME280;26644;50.248;19.032;2023-02-03T01:54:19;98695.44;;;0.69;65.80
40918;BME280;26644;50.248;19.032;2023-02-03T01:57:34;98681.94;;;0.55;66.16
40918;BME280;26644;50.248;19.032;2023-02-03T02:00:48;98689.41;;;0.60;65.82
40918;BME280;26644;50.248;19.032;2023-02-03T02:03:58;98695.00;;;0.58;65.85
40918;BME280;26644;50.248;19.032;2023-02-03T02:07:08;98693.56;;;0.56;65.90
40918;BME280;26644;50.248;19.032;2023-02-03T02:10:16;98693.56;;;0.56;66.02
40918;BME280;26644;50.248;19.032;2023-02-03T02:13:22;98690.03;;;0.62;66.35
40918;BME280;26644;50.248;19.032;2023-02-03T02:16:44;98663.41;;;0.52;66.27
40918;BME280;26644;50.248;19.032;2023-02-03T02:20:25;98679.44;;;0.67;66.38
40918;BME280;26644;50.248;19.032;2023-02-03T02:31:55;98677.56;;;0.54;66.37
40918;BME280;26644;50.248;19.032;2023-02-03T02:35:18;98675.06;;;0.53;66.11
40918;BME280;26644;50.248;19.032;2023-02-03T02:38:44;98668.81;;;0.39;66.19
40918;BME280;26644;50.248;19.032;2023-02-03T02:41:59;98660.50;;;0.34;66.66
40918;BME280;26644;50.248;19.032;2023-02-03T02:45:14;98633.50;;;0.20;66.41
40918;BME280;26644;50.248;19.032;2023-02-03T02:48:35;98576.16;;;-0.22;66.56
40918;BME280;26644;50.248;19.032;2023-02-03T02:51:48;98644.50;;;0.25;66.62
40918;BME280;26644;50.248;19.032;2023-02-03T02:55:00;98644.28;;;0.20;66.72
40918;BME280;26644;50.248;19.032;2023-02-03T02:58:14;98576.16;;;-0.22;66.40
40918;BME280;26644;50.248;19.032;2023-02-03T03:01:23;98599.59;;;-0.23;66.80
40918;BME280;26644;50.248;19.032;2023-02-03T03:04:34;98633.69;;;-0.08;67.07
40918;BME280;26644;50.248;19.032;2023-02-03T03:07:47;98612.03;;;-0.42;67.43
40918;BME280;26644;50.248;19.032;2023-02-03T03:11:00;98654.00;;;-0.26;68.24
40918;BME280;26644;50.248;19.032;2023-02-03T03:14:10;98655.25;;;-0.28;68.47
40918;BME280;26644;50.248;19.032;2023-02-03T03:17:25;98672.44;;;-0.29;68.93
40918;BME280;26644;50.248;19.032;2023-02-03T03:20:39;98662.28;;;-0.34;68.94
40918;BME280;26644;50.248;19.032;2023-02-03T03:23:51;98640.63;;;-0.47;69.36
40918;BME280;26644;50.248;19.032;2023-02-03T03:27:06;98648.59;;;-0.32;69.30
40918;BME280;26644;50.248;19.032;2023-02-03T03:30:22;98659.38;;;-0.32;69.28
40918;BME280;26644;50.248;19.032;2023-02-03T03:33:32;98653.13;;;-0.33;69.15
40918;BME280;26644;50.248;19.032;2023-02-03T03:36:46;98624.88;;;-0.50;69.13
40918;BME280;26644;50.248;19.032;2023-02-03T03:40:04;98650.41;;;-0.40;68.83
40918;BME280;26644;50.248;19.032;2023-02-03T03:43:18;98635.91;;;-0.38;69.12
40918;BME280;26644;50.248;19.032;2023-02-03T03:46:30;98624.28;;;-0.39;68.81
40918;BME280;26644;50.248;19.032;2023-02-03T03:49:46;98610.59;;;-0.31;68.19
40918;BME280;26644;50.248;19.032;2023-02-03T03:52:58;98600.22;;;-0.34;67.88
40918;BME280;26644;50.248;19.032;2023-02-03T03:56:12;98602.28;;;-0.29;67.63
40918;BME280;26644;50.248;19.032;2023-02-03T03:59:26;98547.44;;;-0.57;67.02
40918;BME280;26644;50.248;19.032;2023-02-03T04:02:38;98605.63;;;-0.27;66.71
40918;BME280;26644;50.248;19.032;2023-02-03T04:05:47;98581.72;;;-0.44;66.42
40918;BME280;26644;50.248;19.032;2023-02-03T04:08:56;98597.91;;;-0.37;66.66
40918;BME280;26644;50.248;19.032;2023-02-03T04:12:03;98595.22;;;-0.44;67.02
40918;BME280;26644;50.248;19.032;2023-02-03T04:15:09;98574.41;;;-0.63;67.46
40918;BME280;26644;50.248;19.032;2023-02-03T04:18:15;98594.38;;;-0.44;67.67
40918;BME280;26644;50.248;19.032;2023-02-03T04:21:21;98590.66;;;-0.43;68.19
40918;BME280;26644;50.248;19.032;2023-02-03T04:24:29;98581.50;;;-0.49;68.60
40918;BME280;26644;50.248;19.032;2023-02-03T04:27:34;98576.31;;;-0.50;68.83
40918;BME280;26644;50.248;19.032;2023-02-03T04:30:40;98576.72;;;-0.53;68.97
40918;BME280;26644;50.248;19.032;2023-02-03T04:33:45;98579.44;;;-0.53;69.17
40918;BME280;26644;50.248;19.032;2023-02-03T04:36:50;98570.50;;;-0.54;69.45
40918;BME280;26644;50.248;19.032;2023-02-03T04:39:59;98572.78;;;-0.51;69.68
40918;BME280;26644;50.248;19.032;2023-02-03T04:43:07;98560.53;;;-0.53;69.30
40918;BME280;26644;50.248;19.032;2023-02-03T04:46:13;98570.13;;;-0.44;69.16
40918;BME280;26644;50.248;19.032;2023-02-03T04:49:19;98558.09;;;-0.42;69.53
40918;BME280;26644;50.248;19.032;2023-02-03T04:52:25;98546.88;;;-0.38;69.35
40918;BME280;26644;50.248;19.032;2023-02-03T04:55:33;98517.78;;;-0.57;69.07
40918;BME280;26644;50.248;19.032;2023-02-03T04:58:38;98517.78;;;-0.57;69.22
40918;BME280;26644;50.248;19.032;2023-02-03T05:01:43;98538.56;;;-0.44;69.05
40918;BME280;26644;50.248;19.032;2023-02-03T05:04:49;98539.41;;;-0.43;69.24
40918;BME280;26644;50.248;19.032;2023-02-03T05:07:54;98515.13;;;-0.43;68.99
40918;BME280;26644;50.248;19.032;2023-02-03T05:11:02;98514.06;;;-0.49;69.26
40918;BME280;26644;50.248;19.032;2023-02-03T05:14:08;98512.22;;;-0.48;69.23
40918;BME280;26644;50.248;19.032;2023-02-03T05:17:13;98491.44;;;-0.54;69.08
40918;BME280;26644;50.248;19.032;2023-02-03T05:20:19;98482.13;;;-0.59;69.10
40918;BME280;26644;50.248;19.032;2023-02-03T05:23:25;98483.56;;;-0.63;69.12
40918;BME280;26644;50.248;19.032;2023-02-03T05:26:33;98478.97;;;-0.69;69.55
40918;BME280;26644;50.248;19.032;2023-02-03T05:29:39;98460.50;;;-0.85;69.74
40918;BME280;26644;50.248;19.032;2023-02-03T05:32:44;98465.91;;;-0.79;70.16
40918;BME280;26644;50.248;19.032;2023-02-03T05:35:50;98443.28;;;-0.91;70.17
40918;BME280;26644;50.248;19.032;2023-02-03T05:38:55;98468.41;;;-0.77;70.47
40918;BME280;26644;50.248;19.032;2023-02-03T05:42:04;98451.38;;;-0.84;70.72
40918;BME280;26644;50.248;19.032;2023-02-03T05:45:07;98465.69;;;-0.77;70.66
40918;BME280;26644;50.248;19.032;2023-02-03T05:48:13;98419.84;;;-1.04;71.18
40918;BME280;26644;50.248;19.032;2023-02-03T05:51:18;98426.69;;;-1.01;71.11
40918;BME280;26644;50.248;19.032;2023-02-03T05:54:24;98442.88;;;-0.81;71.01
40918;BME280;26644;50.248;19.032;2023-02-03T05:57:32;98422.31;;;-1.02;71.38
40918;BME280;26644;50.248;19.032;2023-02-03T06:00:38;98439.34;;;-0.82;71.33
40918;BME280;26644;50.248;19.032;2023-02-03T06:03:46;98432.91;;;-0.87;71.50
40918;BME280;26644;50.248;19.032;2023-02-03T06:06:52;98428.16;;;-0.85;71.69
40918;BME280;26644;50.248;19.032;2023-02-03T06:09:57;98422.97;;;-0.87;71.59
40918;BME280;26644;50.248;19.032;2023-02-03T06:13:13;98422.34;;;-0.82;71.55
40918;BME280;26644;50.248;19.032;2023-02-03T06:16:19;98400.34;;;-0.93;71.43
40918;BME280;26644;50.248;19.032;2023-02-03T06:19:26;98419.00;;;-0.84;71.64
40918;BME280;26644;50.248;19.032;2023-02-03T06:22:31;98407.41;;;-0.92;71.43
40918;BME280;26644;50.248;19.032;2023-02-03T06:25:37;98408.44;;;-0.86;71.50
40918;BME280;26644;50.248;19.032;2023-02-03T06:28:44;98387.72;;;-0.99;71.08
40918;BME280;26644;50.248;19.032;2023-02-03T06:31:50;98406.38;;;-0.84;71.11
40918;BME280;26644;50.248;19.032;2023-02-03T06:34:55;98398.50;;;-0.85;70.77
40918;BME280;26644;50.248;19.032;2023-02-03T06:38:01;98378.19;;;-0.88;70.62
40918;BME280;26644;50.248;19.032;2023-02-03T06:41:06;98383.38;;;-0.73;70.89
40918;BME280;26644;50.248;19.032;2023-02-03T06:44:14;98387.94;;;-0.67;70.70
40918;BME280;26644;50.248;19.032;2023-02-03T06:47:19;98383.78;;;-0.69;69.99
40918;BME280;26644;50.248;19.032;2023-02-03T06:50:25;98379.63;;;-0.65;70.05
40918;BME280;26644;50.248;19.032;2023-02-03T06:53:30;98379.00;;;-0.67;69.97
40918;BME280;26644;50.248;19.032;2023-02-03T06:56:36;98380.88;;;-0.68;69.95
40918;BME280;26644;50.248;19.032;2023-02-03T06:59:44;98362.44;;;-0.64;69.97
40918;BME280;26644;50.248;19.032;2023-02-03T07:02:53;98361.78;;;-0.60;70.09
40918;BME280;26644;50.248;19.032;2023-02-03T07:05:59;98364.47;;;-0.53;69.75
40918;BME280;26644;50.248;19.032;2023-02-03T07:09:05;98364.69;;;-0.54;69.55
40918;BME280;26644;50.248;19.032;2023-02-03T07:12:10;98346.84;;;-0.62;69.45
40918;BME280;26644;50.248;19.032;2023-02-03T07:15:19;98342.47;;;-0.57;69.24
40918;BME280;26644;50.248;19.032;2023-02-03T07:18:24;98334.19;;;-0.48;69.23
40918;BME280;26644;50.248;19.032;2023-02-03T07:21:32;98344.56;;;-0.45;68.33
40918;BME280;26644;50.248;19.032;2023-02-03T07:24:37;98327.94;;;-0.42;67.97
40918;BME280;26644;50.248;19.032;2023-02-03T07:27:42;98300.16;;;-0.43;67.68
40918;BME280;26644;50.248;19.032;2023-02-03T07:30:50;98311.72;;;-0.35;66.67
40918;BME280;26644;50.248;19.032;2023-02-03T07:33:56;98313.16;;;-0.26;66.48
40918;BME280;26644;50.248;19.032;2023-02-03T07:37:01;98320.84;;;-0.23;66.86
40918;BME280;26644;50.248;19.032;2023-02-03T07:40:08;98314.81;;;-0.25;66.41
40918;BME280;26644;50.248;19.032;2023-02-03T07:43:14;98310.88;;;-0.23;66.17
40918;BME280;26644;50.248;19.032;2023-02-03T07:46:22;98300.09;;;-0.23;65.60
40918;BME280;26644;50.248;19.032;2023-02-03T07:49:27;98290.72;;;-0.20;65.66
40918;BME280;26644;50.248;19.032;2023-02-03T07:52:33;98277.03;;;-0.18;65.36
40918;BME280;26644;50.248;19.032;2023-02-03T07:55:38;98279.72;;;-0.18;65.09
40918;BME280;26644;50.248;19.032;2023-02-03T07:58:44;98273.06;;;-0.16;64.67
40918;BME280;26644;50.248;19.032;2023-02-03T08:01:52;98264.75;;;-0.14;64.85
40918;BME280;26644;50.248;19.032;2023-02-03T08:04:58;98270.13;;;-0.08;64.93
40918;BME280;26644;50.248;19.032;2023-02-03T08:08:03;98264.53;;;-0.06;64.99
40918;BME280;26644;50.248;19.032;2023-02-03T08:11:09;98247.66;;;0.05;64.77
40918;BME280;26644;50.248;19.032;2023-02-03T08:14:14;98248.66;;;0.11;64.77
40918;BME280;26644;50.248;19.032;2023-02-03T08:17:23;98240.72;;;0.16;64.41
40918;BME280;26644;50.248;19.032;2023-02-03T08:20:29;98213.19;;;0.07;64.26
40918;BME280;26644;50.248;19.032;2023-02-03T08:23:34;98212.69;;;0.17;64.29
40918;BME280;26644;50.248;19.032;2023-02-03T08:26:42;98195.72;;;0.10;64.28
40918;BME280;26644;50.248;19.032;2023-02-03T08:29:48;98212.19;;;0.27;64.40
40918;BME280;26644;50.248;19.032;2023-02-03T08:32:56;98209.44;;;0.34;63.97
40918;BME280;26644;50.248;19.032;2023-02-03T08:36:03;98231.03;;;0.40;64.72
40918;BME280;26644;50.248;19.032;2023-02-03T08:39:09;98228.88;;;0.49;65.07
40918;BME280;26644;50.248;19.032;2023-02-03T08:42:15;98216.75;;;0.58;65.49
40918;BME280;26644;50.248;19.032;2023-02-03T08:45:20;98206.28;;;0.69;66.03
40918;BME280;26644;50.248;19.032;2023-02-03T08:48:29;98211.81;;;0.81;66.71
40918;BME280;26644;50.248;19.032;2023-02-03T08:51:34;98203.53;;;0.75;68.69
40918;BME280;26644;50.248;19.032;2023-02-03T08:54:39;98204.09;;;0.59;71.21
40918;BME280;26644;50.248;19.032;2023-02-03T08:57:45;98201.59;;;0.57;72.35
40918;BME280;26644;50.248;19.032;2023-02-03T09:00:50;98193.94;;;0.54;73.04
40918;BME280;26644;50.248;19.032;2023-02-03T09:03:58;98184.28;;;0.40;73.93
40918;BME280;26644;50.248;19.032;2023-02-03T09:07:08;98182.19;;;0.42;74.57
40918;BME280;26644;50.248;19.032;2023-02-03T09:10:13;98174.75;;;0.37;74.97
40918;BME280;26644;50.248;19.032;2023-02-03T09:13:19;98151.41;;;0.18;75.77
40918;BME280;26644;50.248;19.032;2023-02-03T09:16:24;98156.56;;;0.26;76.40
40918;BME280;26644;50.248;19.032;2023-02-03T09:19:35;98142.53;;;0.10;77.66
40918;BME280;26644;50.248;19.032;2023-02-03T09:22:39;98137.38;;;0.09;78.32
40918;BME280;26644;50.248;19.032;2023-02-03T09:25:45;98123.03;;;0.08;78.59
40918;BME280;26644;50.248;19.032;2023-02-03T09:28:51;98114.34;;;0.06;78.71
40918;BME280;26644;50.248;19.032;2023-02-03T09:31:57;98111.47;;;0.01;78.70
40918;BME280;26644;50.248;19.032;2023-02-03T09:35:10;98114.09;;;0.08;79.02
40918;BME280;26644;50.248;19.032;2023-02-03T09:38:15;98091.88;;;0.06;78.84
40918;BME280;26644;50.248;19.032;2023-02-03T09:41:35;98078.63;;;0.04;79.39
40918;BME280;26644;50.248;19.032;2023-02-03T09:45:05;98038.06;;;-0.14;79.84
40918;BME280;26644;50.248;19.032;2023-02-03T09:48:22;98064.59;;;-0.04;80.47
40918;BME280;26644;50.248;19.032;2023-02-03T09:51:43;98053.16;;;-0.07;80.84
40918;BME280;26644;50.248;19.032;2023-02-03T09:54:57;98038.53;;;-0.17;81.43
40918;BME280;26644;50.248;19.032;2023-02-03T09:58:10;98025.59;;;-0.09;81.20
40918;BME280;26644;50.248;19.032;2023-02-03T10:01:20;97985.66;;;-0.25;81.24
40918;BME280;26644;50.248;19.032;2023-02-03T10:04:36;98001.66;;;-0.05;81.51
40918;BME280;26644;50.248;19.032;2023-02-03T10:07:55;97987.59;;;-0.07;81.23
40918;BME280;26644;50.248;19.032;2023-02-03T10:11:17;97980.31;;;-0.07;81.87
40918;BME280;26644;50.248;19.032;2023-02-03T10:14:48;97958.13;;;-0.09;81.96
40918;BME280;26644;50.248;19.032;2023-02-03T10:18:08;97944.25;;;-0.12;82.48
40918;BME280;26644;50.248;19.032;2023-02-03T10:21:28;97936.47;;;-0.02;82.34
40918;BME280;26644;50.248;19.032;2023-02-03T10:24:46;97904.13;;;-0.27;82.78
40918;BME280;26644;50.248;19.032;2023-02-03T10:28:02;97789.50;;;-1.05;82.93
40918;BME280;26644;50.248;19.032;2023-02-03T10:31:18;97907.19;;;-0.24;83.27
40918;BME280;26644;50.248;19.032;2023-02-03T10:34:25;97908.38;;;-0.19;83.21
40918;BME280;26644;50.248;19.032;2023-02-03T10:37:36;97899.63;;;-0.15;83.21
40918;BME280;26644;50.248;19.032;2023-02-03T10:40:50;97890.28;;;-0.12;83.44
40918;BME280;26644;50.248;19.032;2023-02-03T10:43:57;97880.28;;;-0.12;83.57
40918;BME280;26644;50.248;19.032;2023-02-03T10:47:24;97836.59;;;-0.39;83.94
40918;BME280;26644;50.248;19.032;2023-02-03T10:50:41;97856.94;;;-0.18;84.20
40918;BME280;26644;50.248;19.032;2023-02-03T10:53:51;97851.06;;;-0.15;84.02
40918;BME280;26644;50.248;19.032;2023-02-03T10:57:03;97839.00;;;-0.12;84.49
40918;BME280;26644;50.248;19.032;2023-02-03T11:00:21;97828.22;;;-0.12;84.36
40918;BME280;26644;50.248;19.032;2023-02-03T11:03:31;97789.16;;;-0.28;84.52
40918;BME280;26644;50.248;19.032;2023-02-03T11:06:54;97800.53;;;-0.08;84.38
40918;BME280;26644;50.248;19.032;2023-02-03T11:10:03;97789.47;;;-0.18;84.74
40918;BME280;26644;50.248;19.032;2023-02-03T11:13:30;97784.66;;;-0.16;84.83
40918;BME280;26644;50.248;19.032;2023-02-03T11:16:37;97755.38;;;-0.31;84.86
40918;BME280;26644;50.248;19.032;2023-02-03T11:19:45;97763.81;;;-0.09;84.96
40918;BME280;26644;50.248;19.032;2023-02-03T11:22:52;97744.47;;;-0.05;84.98
40918;BME280;26644;50.248;19.032;2023-02-03T11:25:57;97734.25;;;-0.03;84.78
40918;BME280;26644;50.248;19.032;2023-02-03T11:29:15;97728.50;;;-0.07;85.03
40918;BME280;26644;50.248;19.032;2023-02-03T11:32:31;97706.09;;;-0.08;85.24
40918;BME280;26644;50.248;19.032;2023-02-03T11:35:39;97697.09;;;-0.01;85.17
40918;BME280;26644;50.248;19.032;2023-02-03T11:39:18;97637.16;;;-0.34;85.36
40918;BME280;26644;50.248;19.032;2023-02-03T11:42:28;97669.06;;;-0.00;85.65
40918;BME280;26644;50.248;19.032;2023-02-03T11:45:40;97647.47;;;-0.00;85.81
40918;BME280;26644;50.248;19.032;2023-02-03T11:49:02;97649.00;;;0.07;85.83
40918;BME280;26644;50.248;19.032;2023-02-03T11:52:38;97634.09;;;0.05;86.30
40918;BME280;26644;50.248;19.032;2023-02-03T11:56:19;97621.31;;;0.12;86.29
40918;BME280;26644;50.248;19.032;2023-02-03T11:59:46;97599.81;;;0.05;86.42
40918;BME280;26644;50.248;19.032;2023-02-03T12:03:47;97606.06;;;0.18;86.52
40918;BME280;26644;50.248;19.032;2023-02-03T12:07:28;97596.09;;;0.18;86.54
40918;BME280;26644;50.248;19.032;2023-02-03T12:10:56;97576.72;;;0.21;86.90
40918;BME280;26644;50.248;19.032;2023-02-03T12:14:26;97566.16;;;0.20;87.08
40918;BME280;26644;50.248;19.032;2023-02-03T12:17:55;97557.72;;;0.28;87.53
40918;BME280;26644;50.248;19.032;2023-02-03T12:21:37;97542.81;;;0.25;87.62
40918;BME280;26644;50.248;19.032;2023-02-03T12:25:00;97537.41;;;0.25;87.83
40918;BME280;26644;50.248;19.032;2023-02-03T12:28:34;97522.84;;;0.26;88.16
40918;BME280;26644;50.248;19.032;2023-02-03T12:31:58;97512.97;;;0.32;88.33
40918;BME280;26644;50.248;19.032;2023-02-03T12:35:15;97512.88;;;0.27;88.82
40918;BME280;26644;50.248;19.032;2023-02-03T12:38:37;97479.16;;;0.30;88.91
40918;BME280;26644;50.248;19.032;2023-02-03T12:41:51;97474.13;;;0.33;88.89
40918;BME280;26644;50.248;19.032;2023-02-03T12:45:08;97478.22;;;0.48;88.75
40918;BME280;26644;50.248;19.032;2023-02-03T12:48:22;97461.28;;;0.52;88.57
40918;BME280;26644;50.248;19.032;2023-02-03T12:51:39;97446.88;;;0.47;88.76
40918;BME280;26644;50.248;19.032;2023-02-03T12:55:02;97453.91;;;0.48;88.74
40918;BME280;26644;50.248;19.032;2023-02-03T12:58:24;97444.38;;;0.57;88.73
40918;BME280;26644;50.248;19.032;2023-02-03T13:01:36;97441.56;;;0.52;88.80
40918;BME280;26644;50.248;19.032;2023-02-03T13:04:53;97438.63;;;0.53;89.00
40918;BME280;26644;50.248;19.032;2023-02-03T13:08:15;97424.88;;;0.55;88.65
40918;BME280;26644;50.248;19.032;2023-02-03T13:11:35;97423.41;;;0.47;88.87
40918;BME280;26644;50.248;19.032;2023-02-03T13:14:49;97417.16;;;0.47;89.01
40918;BME280;26644;50.248;19.032;2023-02-03T13:18:10;97385.38;;;0.37;89.35
40918;BME280;26644;50.248;19.032;2023-02-03T13:21:22;97375.75;;;0.41;89.34
40918;BME280;26644;50.248;19.032;2023-02-03T13:24:29;97375.13;;;0.39;89.57
40918;BME280;26644;50.248;19.032;2023-02-03T13:27:45;97360.47;;;0.35;89.65
40918;BME280;26644;50.248;19.032;2023-02-03T13:31:13;97351.22;;;0.31;89.85
40918;BME280;26644;50.248;19.032;2023-02-03T13:35:05;97341.97;;;0.26;90.34
40918;BME280;26644;50.248;19.032;2023-02-03T13:38:37;97324.84;;;0.21;90.32
40918;BME280;26644;50.248;19.032;2023-02-03T13:42:10;97315.72;;;0.22;90.50
40918;BME280;26644;50.248;19.032;2023-02-03T13:45:30;97317.06;;;0.24;91.01
40918;BME280;26644;50.248;19.032;2023-02-03T13:48:44;97301.38;;;0.21;90.88
40918;BME280;26644;50.248;19.032;2023-02-03T13:51:51;97296.66;;;0.29;90.87
40918;BME280;26644;50.248;19.032;2023-02-03T13:54:59;97293.72;;;0.30;91.01
40918;BME280;26644;50.248;19.032;2023-02-03T13:58:19;97284.22;;;0.27;90.82
40918;BME280;26644;50.248;19.032;2023-02-03T14:01:36;97279.38;;;0.30;90.97
40918;BME280;26644;50.248;19.032;2023-02-03T14:04:53;97275.72;;;0.36;91.13
40918;BME280;26644;50.248;19.032;2023-02-03T14:16:20;97254.56;;;0.45;90.74
40918;BME280;26644;50.248;19.032;2023-02-03T14:23:15;97221.97;;;0.34;91.01
40918;BME280;26644;50.248;19.032;2023-02-03T14:26:39;97219.56;;;0.50;90.83
40918;BME280;26644;50.248;19.032;2023-02-03T14:30:03;97216.34;;;0.53;90.77
40918;BME280;26644;50.248;19.032;2023-02-03T14:33:13;97215.03;;;0.55;90.61
40918;BME280;26644;50.248;19.032;2023-02-03T14:36:34;97195.56;;;0.53;90.58
40918;BME280;26644;50.248;19.032;2023-02-03T14:40:21;97200.69;;;0.55;90.33
40918;BME280;26644;50.248;19.032;2023-02-03T14:43:43;97190.56;;;0.62;90.40
40918;BME280;26644;50.248;19.032;2023-02-03T14:47:08;97192.38;;;0.56;90.39
40918;BME280;26644;50.248;19.032;2023-02-03T14:50:32;97187.63;;;0.47;90.49
40918;BME280;26644;50.248;19.032;2023-02-03T14:54:22;97207.66;;;0.51;90.64
40918;BME280;26644;50.248;19.032;2023-02-03T14:57:47;97205.03;;;0.56;90.96
40918;BME280;26644;50.248;19.032;2023-02-03T15:00:56;97199.09;;;0.54;90.91
40918;BME280;26644;50.248;19.032;2023-02-03T15:04:19;97213.56;;;0.65;90.99
40918;BME280;26644;50.248;19.032;2023-02-03T15:07:40;97205.56;;;0.70;90.72
40918;BME280;26644;50.248;19.032;2023-02-03T15:10:51;97214.81;;;0.74;90.55
40918;BME280;26644;50.248;19.032;2023-02-03T15:14:16;97214.06;;;0.79;90.45
40918;BME280;26644;50.248;19.032;2023-02-03T15:17:27;97213.31;;;0.83;90.28
40918;BME280;26644;50.248;19.032;2023-02-03T15:20:35;97230.94;;;0.86;90.10
40918;BME280;26644;50.248;19.032;2023-02-03T15:23:43;97232.31;;;1.05;90.03
40918;BME280;26644;50.248;19.032;2023-02-03T15:26:55;97221.50;;;1.05;89.76
40918;BME280;26644;50.248;19.032;2023-02-03T15:30:14;97200.69;;;1.06;89.73
40918;BME280;26644;50.248;19.032;2023-02-03T15:33:22;97193.66;;;1.05;89.51
40918;BME280;26644;50.248;19.032;2023-02-03T15:36:36;97171.09;;;1.16;89.99
40918;BME280;26644;50.248;19.032;2023-02-03T15:39:58;97208.97;;;1.38;89.95
40918;BME280;26644;50.248;19.032;2023-02-03T15:43:15;97195.16;;;1.35;89.79
40918;BME280;26644;50.248;19.032;2023-02-03T15:46:33;97211.44;;;1.40;89.75
40918;BME280;26644;50.248;19.032;2023-02-03T15:49:43;97184.63;;;1.38;89.75
40918;BME280;26644;50.248;19.032;2023-02-03T15:52:57;97210.97;;;1.65;89.65
40918;BME280;26644;50.248;19.032;2023-02-03T15:56:21;97209.06;;;1.66;89.67
40918;BME280;26644;50.248;19.032;2023-02-03T15:59:41;97234.41;;;1.82;89.58
40918;BME280;26644;50.248;19.032;2023-02-03T16:02:50;97241.59;;;1.93;89.40
40918;BME280;26644;50.248;19.032;2023-02-03T16:05:56;97224.78;;;1.91;89.03
40918;BME280;26644;50.248;19.032;2023-02-03T16:09:27;97223.53;;;1.99;88.95
40918;BME280;26644;50.248;19.032;2023-02-03T16:12:36;97223.31;;;2.05;88.52
40918;BME280;26644;50.248;19.032;2023-02-03T16:15:57;97249.25;;;2.23;88.11
40918;BME280;26644;50.248;19.032;2023-02-03T16:19:13;97247.16;;;2.31;88.08
40918;BME280;26644;50.248;19.032;2023-02-03T16:22:27;97210.66;;;2.11;87.75
40918;BME280;26644;50.248;19.032;2023-02-03T16:25:35;97236.91;;;2.38;87.93
40918;BME280;26644;50.248;19.032;2023-02-03T16:28:40;97246.22;;;2.47;87.74
40918;BME280;26644;50.248;19.032;2023-02-03T16:32:02;97251.44;;;2.54;87.41
40918;BME280;26644;50.248;19.032;2023-02-03T16:35:33;97237.66;;;2.55;87.22
40918;BME280;26644;50.248;19.032;2023-02-03T16:38:51;97263.00;;;2.71;87.34
40918;BME280;26644;50.248;19.032;2023-02-03T16:42:14;97263.53;;;2.73;86.97
40918;BME280;26644;50.248;19.032;2023-02-03T16:45:33;97251.91;;;2.73;87.04
40918;BME280;26644;50.248;19.032;2023-02-03T16:48:53;97265.19;;;2.74;87.18
40918;BME280;26644;50.248;19.032;2023-02-03T16:52:11;97248.81;;;2.64;87.08
40918;BME280;26644;50.248;19.032;2023-02-03T16:55:16;97268.22;;;2.78;87.02
40918;BME280;26644;50.248;19.032;2023-02-03T16:58:22;97267.44;;;2.83;87.14
40918;BME280;26644;50.248;19.032;2023-02-03T17:01:28;97262.22;;;2.76;87.23
40918;BME280;26644;50.248;19.032;2023-02-03T17:04:36;97283.47;;;2.89;87.02
40918;BME280;26644;50.248;19.032;2023-02-03T17:07:41;97277.78;;;2.91;87.09
40918;BME280;26644;50.248;19.032;2023-02-03T17:10:48;97257.88;;;2.75;87.12
40918;BME280;26644;50.248;19.032;2023-02-03T17:13:54;97255.47;;;2.78;87.04